Unser Flugplatzteam

Segelflugzeugschlepp am Flugplatz Konstanz

Unsere freundlichen Mitarbeiter stehen Ihnen gerne mit Rat und Tat zur Seite:

Robert Leitner

Flugleiter, Landesbeauftragter für Luftaufsicht am Verkehrlandeplatz Konstanz

Minky Schweizer

Flugleiterin

Dieter Bauer

Flugleiter

Live am Platz

Die Bilder unserer Webcams werden alle 5 Minuten aktualisiert.

Sonnenaufgang:

05:05 UTC / 07:05 Lokal

Sonnenuntergang:

17:29 UTC / 19:29 Lokal

METAR (19.09.2018 02:20 UTC):

EDNY 190020Z AUTO 08004KT 030V130 9999 // NCD 16/14 Q1021
VFR

TAF (19.09.2018 01:00 UTC):

TAF EDNY 182300Z 1900/1924 VRB03KT CAVOK PROB30 TEMPO 1902/1906 2000 BCFG BECMG 1910/1912 23005KT BECMG 1915/1917 VRB03KT

Alle Angaben unverbindlich und ohne Gewähr. Zeiten genähert.

Für den Verkehrslandeplatz Konstanz werden keine offiziellen Wetterinformationen herausgegeben. Daher werden zur Orientierung Daten des nahegelegenen Flughafens Friedrichshafen dargestellt.